Details From YBCS - Cairns
To YBTL - Townsville Intl
Flight Number -
Tags decoded
Created
Modified
Stats Distance 161 nm / 298 km
Max Altitude 0 ft / 0 m
Waypoints 5
Social Downloads 16
Likes 0
Share VATSIM

Download

Looking for another format? Having issues loading an existing format? Contact us
Advertisement - Login to hide

Notes

Requested: YBCS CS V264 SPARO V153 BINUN YBTL Unmatched points: BINUN

Route

YBCS CS V264 SPARO YBTL

ID Type Via Altitude (ft/m) Position (lat/lon) Dist (leg/tot) Name
O YBCS APT - 0 / 0 -16.87890 / 145.74900 - / 0 nm Cairns
CS VOR - 0 / 0 -16.85000 / 145.74400 1 / 1 nm CAIRNS
PAWSO FIX V264 (AWY-LO) 0 / 0 -17.21170 / 146.10500 30 / 31 nm
SPARO FIX V264 (AWY-LO) 0 / 0 -18.05540 / 146.23100 51 / 82 nm
O YBTL APT - 0 / 0 -19.25130 / 146.76500 77 / 160 nm Townsville Intl

Altitude Profile

Advertisement - Login to hide

YBCS

Details ICAO YBCS (CNS)
Name Cairns
Region Australia
Timezone Australia/Brisbane (UTC+10.0)
Stats Elevation 9 ft / 3 m (AMSL)
Location -16.878900° 145.749000°
Runways 1
Magnetic Variation 6.638° E

METAR

YBCS 060200Z AUTO 12007KT 9999 // SCT042 31/23 Q1012 NOSIG

Decode

TAF

TAF YBCS 052325Z 0600/0700 12013KT 9999 FEW030 FM060900 15005KT 9999 SCT020

Decode

Departure Runways

ID Width Length Bearing (true/mag) Surface Threshold Overrun Markings Lighting
15 148 ft / 45 m 10,395 ft / 3,168 m 156.62° / 149.98° ASPHALT 0 ft / 0 m 328 ft / 100 m PREC-APP CENTERLINE EDGE THRESHOLD CALVERT TDZ
33 148 ft / 45 m 10,395 ft / 3,168 m 336.61° / 329.97° ASPHALT 0 ft / 0 m 0 ft / 0 m UK-APP CENTERLINE EDGE THRESHOLD

YBTL

Details ICAO YBTL (TSV)
Name Townsville Intl
Region Australia
Timezone Australia/Brisbane (UTC+10.0)
Stats Elevation 18 ft / 5 m (AMSL)
Location -19.251300° 146.765000°
Runways 2
Magnetic Variation 7.324° E

METAR

YBTL 060200Z 06011KT 9999 FEW032 30/23 Q1013 NOSIG

Decode

TAF

TAF YBTL 052301Z 0600/0700 09010KT 9999 SCT025 FM060200 06014KT 9999 FEW030 FM061000 11008KT 9999 SCT020

Decode

Destination Runways

ID Width Length Bearing (true/mag) Surface Threshold Overrun Markings Lighting
01 148 ft / 45 m 8,022 ft / 2,445 m 23.99° / 16.67° ASPHALT 0 ft / 0 m 0 ft / 0 m PREC-APP CENTERLINE EDGE THRESHOLD SALS TDZ
07 98 ft / 30 m 3,607 ft / 1,099 m 73.73° / 66.41° ASPHALT 0 ft / 0 m 0 ft / 0 m PREC-APP EDGE THRESHOLD
19 148 ft / 45 m 8,022 ft / 2,445 m 203.99° / 196.67° ASPHALT 0 ft / 0 m 0 ft / 0 m PREC-APP CENTERLINE EDGE THRESHOLD
25 98 ft / 30 m 3,607 ft / 1,099 m 253.73° / 246.40° ASPHALT 0 ft / 0 m 0 ft / 0 m PREC-APP EDGE THRESHOLD

Approach Navaids

Runway Type Ident Frequency Range Bearing (true/mag) Slope Elevation
01 MM MM - - 24.02° / 16.70 ° - 18 ft / 5 m (AMSL)
01 OM OM - - 24.02° / 16.70 ° - 18 ft / 5 m (AMSL)
01 DME ITL 109.30 MHz 18 nm / 33 km - - 18 ft / 5 m (AMSL)
01 LOC-ILS ITL 109.30 MHz 18 nm / 33 km 23.99° / 16.67 ° - 18 ft / 5 m (AMSL)
01 GS ITL 109.30 MHz 10 nm / 19 km 23.99° / 16.67 ° 3.00° 18 ft / 5 m (AMSL)

Popular Alternatives